sensor_id;sensor_type;location;lat;lon;timestamp;P1;durP1;ratioP1;P2;durP2;ratioP2
73938;SDS011;62291;47.554;8.504;2023-11-21T00:01:01;6.15;;;1.17;;
73938;SDS011;62291;47.554;8.504;2023-11-21T00:03:29;5.07;;;1.00;;
73938;SDS011;62291;47.554;8.504;2023-11-21T00:05:55;8.40;;;1.40;;
73938;SDS011;62291;47.554;8.504;2023-11-21T00:08:21;8.05;;;1.20;;
73938;SDS011;62291;47.554;8.504;2023-11-21T00:10:46;8.48;;;1.52;;
73938;SDS011;62291;47.554;8.504;2023-11-21T00:13:13;8.35;;;1.45;;
73938;SDS011;62291;47.554;8.504;2023-11-21T00:15:39;9.50;;;2.20;;
73938;SDS011;62291;47.554;8.504;2023-11-21T00:18:05;9.23;;;1.73;;
73938;SDS011;62291;47.554;8.504;2023-11-21T00:20:31;10.25;;;1.90;;
73938;SDS011;62291;47.554;8.504;2023-11-21T00:22:57;7.25;;;1.45;;
73938;SDS011;62291;47.554;8.504;2023-11-21T00:25:24;12.27;;;1.50;;
73938;SDS011;62291;47.554;8.504;2023-11-21T00:27:50;8.88;;;2.00;;
73938;SDS011;62291;47.554;8.504;2023-11-21T00:30:16;10.30;;;1.83;;
73938;SDS011;62291;47.554;8.504;2023-11-21T00:32:41;9.27;;;1.75;;
73938;SDS011;62291;47.554;8.504;2023-11-21T00:35:08;12.45;;;2.38;;
73938;SDS011;62291;47.554;8.504;2023-11-21T00:37:33;9.15;;;1.50;;
73938;SDS011;62291;47.554;8.504;2023-11-21T00:39:59;5.90;;;1.00;;
73938;SDS011;62291;47.554;8.504;2023-11-21T00:42:27;10.98;;;1.65;;
73938;SDS011;62291;47.554;8.504;2023-11-21T00:44:53;7.25;;;1.25;;
73938;SDS011;62291;47.554;8.504;2023-11-21T00:47:18;6.25;;;1.42;;
73938;SDS011;62291;47.554;8.504;2023-11-21T00:49:44;5.88;;;1.60;;
73938;SDS011;62291;47.554;8.504;2023-11-21T00:52:10;6.22;;;1.40;;
73938;SDS011;62291;47.554;8.504;2023-11-21T00:54:35;8.75;;;1.40;;
73938;SDS011;62291;47.554;8.504;2023-11-21T00:57:01;9.15;;;1.80;;
73938;SDS011;62291;47.554;8.504;2023-11-21T00:59:27;7.40;;;1.73;;
73938;SDS011;62291;47.554;8.504;2023-11-21T01:01:52;8.95;;;1.67;;
73938;SDS011;62291;47.554;8.504;2023-11-21T01:04:19;7.32;;;1.90;;
73938;SDS011;62291;47.554;8.504;2023-11-21T01:06:45;11.70;;;2.33;;
73938;SDS011;62291;47.554;8.504;2023-11-21T01:09:10;8.90;;;2.03;;
73938;SDS011;62291;47.554;8.504;2023-11-21T01:11:36;10.77;;;2.65;;
73938;SDS011;62291;47.554;8.504;2023-11-21T01:14:03;8.68;;;1.58;;
73938;SDS011;62291;47.554;8.504;2023-11-21T01:16:29;11.40;;;1.88;;
73938;SDS011;62291;47.554;8.504;2023-11-21T01:18:57;9.13;;;1.83;;
73938;SDS011;62291;47.554;8.504;2023-11-21T01:21:24;13.15;;;1.98;;
73938;SDS011;62291;47.554;8.504;2023-11-21T01:23:50;6.60;;;1.63;;
73938;SDS011;62291;47.554;8.504;2023-11-21T01:26:15;6.72;;;1.10;;
73938;SDS011;62291;47.554;8.504;2023-11-21T01:28:41;8.52;;;1.25;;
73938;SDS011;62291;47.554;8.504;2023-11-21T01:31:07;10.35;;;1.70;;
73938;SDS011;62291;47.554;8.504;2023-11-21T01:33:32;5.65;;;1.25;;
73938;SDS011;62291;47.554;8.504;2023-11-21T01:35:58;7.43;;;1.20;;
73938;SDS011;62291;47.554;8.504;2023-11-21T01:38:25;7.35;;;1.67;;
73938;SDS011;62291;47.554;8.504;2023-11-21T01:40:51;7.28;;;1.95;;
73938;SDS011;62291;47.554;8.504;2023-11-21T01:43:16;5.32;;;1.23;;
73938;SDS011;62291;47.554;8.504;2023-11-21T01:45:42;7.35;;;1.38;;
73938;SDS011;62291;47.554;8.504;2023-11-21T01:48:10;7.50;;;1.60;;
73938;SDS011;62291;47.554;8.504;2023-11-21T01:50:36;3.67;;;1.00;;
73938;SDS011;62291;47.554;8.504;2023-11-21T01:53:02;4.57;;;0.90;;
73938;SDS011;62291;47.554;8.504;2023-11-21T01:55:28;7.40;;;1.00;;
73938;SDS011;62291;47.554;8.504;2023-11-21T01:57:57;6.95;;;1.10;;
73938;SDS011;62291;47.554;8.504;2023-11-21T02:00:23;7.65;;;0.90;;
73938;SDS011;62291;47.554;8.504;2023-11-21T02:02:49;8.35;;;1.00;;
73938;SDS011;62291;47.554;8.504;2023-11-21T02:05:16;3.95;;;1.00;;
73938;SDS011;62291;47.554;8.504;2023-11-21T02:07:43;6.65;;;0.70;;
73938;SDS011;62291;47.554;8.504;2023-11-21T02:10:10;2.65;;;0.60;;
73938;SDS011;62291;47.554;8.504;2023-11-21T02:12:48;10.35;;;1.15;;
73938;SDS011;62291;47.554;8.504;2023-11-21T02:15:17;6.60;;;0.90;;
73938;SDS011;62291;47.554;8.504;2023-11-21T02:17:46;6.28;;;1.08;;
73938;SDS011;62291;47.554;8.504;2023-11-21T02:20:16;9.05;;;1.02;;
73938;SDS011;62291;47.554;8.504;2023-11-21T02:22:43;4.55;;;1.00;;
73938;SDS011;62291;47.554;8.504;2023-11-21T02:25:13;3.60;;;0.90;;
73938;SDS011;62291;47.554;8.504;2023-11-21T02:27:39;7.97;;;1.20;;
73938;SDS011;62291;47.554;8.504;2023-11-21T02:30:05;6.88;;;1.23;;
73938;SDS011;62291;47.554;8.504;2023-11-21T02:32:32;7.63;;;1.10;;
73938;SDS011;62291;47.554;8.504;2023-11-21T02:34:59;7.93;;;1.50;;
73938;SDS011;62291;47.554;8.504;2023-11-21T02:37:27;5.75;;;1.00;;
73938;SDS011;62291;47.554;8.504;2023-11-21T02:39:53;10.02;;;1.67;;
73938;SDS011;62291;47.554;8.504;2023-11-21T02:42:19;9.70;;;1.10;;
73938;SDS011;62291;47.554;8.504;2023-11-21T02:44:44;6.40;;;1.00;;
73938;SDS011;62291;47.554;8.504;2023-11-21T02:47:10;4.72;;;0.77;;
73938;SDS011;62291;47.554;8.504;2023-11-21T02:49:35;5.15;;;1.20;;
73938;SDS011;62291;47.554;8.504;2023-11-21T02:52:01;6.13;;;1.10;;
73938;SDS011;62291;47.554;8.504;2023-11-21T02:54:27;9.63;;;1.05;;
73938;SDS011;62291;47.554;8.504;2023-11-21T02:56:53;7.38;;;1.27;;
73938;SDS011;62291;47.554;8.504;2023-11-21T02:59:18;4.30;;;0.82;;
73938;SDS011;62291;47.554;8.504;2023-11-21T03:01:45;6.18;;;1.25;;
73938;SDS011;62291;47.554;8.504;2023-11-21T03:04:11;4.60;;;1.00;;
73938;SDS011;62291;47.554;8.504;2023-11-21T03:06:42;6.32;;;1.02;;
73938;SDS011;62291;47.554;8.504;2023-11-21T03:09:09;7.93;;;0.90;;
73938;SDS011;62291;47.554;8.504;2023-11-21T03:11:36;6.30;;;1.23;;
73938;SDS011;62291;47.554;8.504;2023-11-21T03:14:02;6.20;;;1.13;;
73938;SDS011;62291;47.554;8.504;2023-11-21T03:16:28;3.90;;;1.00;;
73938;SDS011;62291;47.554;8.504;2023-11-21T03:18:54;5.70;;;1.23;;
73938;SDS011;62291;47.554;8.504;2023-11-21T03:21:19;7.47;;;1.00;;
73938;SDS011;62291;47.554;8.504;2023-11-21T03:23:45;6.78;;;1.08;;
73938;SDS011;62291;47.554;8.504;2023-11-21T03:26:14;7.25;;;1.10;;
73938;SDS011;62291;47.554;8.504;2023-11-21T03:28:39;4.60;;;0.88;;
73938;SDS011;62291;47.554;8.504;2023-11-21T03:31:05;6.47;;;1.08;;
73938;SDS011;62291;47.554;8.504;2023-11-21T03:33:31;8.20;;;0.95;;
73938;SDS011;62291;47.554;8.504;2023-11-21T03:35:57;4.85;;;0.82;;
73938;SDS011;62291;47.554;8.504;2023-11-21T03:38:23;3.63;;;1.08;;
73938;SDS011;62291;47.554;8.504;2023-11-21T03:40:49;6.68;;;0.90;;
73938;SDS011;62291;47.554;8.504;2023-11-21T03:43:15;7.75;;;0.90;;
73938;SDS011;62291;47.554;8.504;2023-11-21T03:45:41;6.60;;;1.02;;
73938;SDS011;62291;47.554;8.504;2023-11-21T03:48:07;5.93;;;1.00;;
73938;SDS011;62291;47.554;8.504;2023-11-21T03:50:33;8.75;;;0.93;;
73938;SDS011;62291;47.554;8.504;2023-11-21T03:53:00;4.65;;;0.88;;
73938;SDS011;62291;47.554;8.504;2023-11-21T03:55:25;10.15;;;1.38;;
73938;SDS011;62291;47.554;8.504;2023-11-21T03:57:51;5.78;;;1.55;;
73938;SDS011;62291;47.554;8.504;2023-11-21T04:00:17;7.50;;;1.10;;
73938;SDS011;62291;47.554;8.504;2023-11-21T04:02:45;7.43;;;1.00;;
73938;SDS011;62291;47.554;8.504;2023-11-21T04:05:10;6.07;;;1.23;;
73938;SDS011;62291;47.554;8.504;2023-11-21T04:07:37;7.05;;;1.35;;
73938;SDS011;62291;47.554;8.504;2023-11-21T04:10:03;8.80;;;1.40;;
73938;SDS011;62291;47.554;8.504;2023-11-21T04:12:33;7.13;;;1.13;;
73938;SDS011;62291;47.554;8.504;2023-11-21T04:14:59;6.07;;;1.38;;
73938;SDS011;62291;47.554;8.504;2023-11-21T04:17:25;7.30;;;1.10;;
73938;SDS011;62291;47.554;8.504;2023-11-21T04:19:50;4.68;;;1.10;;
73938;SDS011;62291;47.554;8.504;2023-11-21T04:22:16;7.18;;;1.40;;
73938;SDS011;62291;47.554;8.504;2023-11-21T04:24:42;9.30;;;1.38;;
73938;SDS011;62291;47.554;8.504;2023-11-21T04:27:08;8.35;;;1.08;;
73938;SDS011;62291;47.554;8.504;2023-11-21T04:29:33;5.20;;;1.05;;
73938;SDS011;62291;47.554;8.504;2023-11-21T04:31:59;7.03;;;1.00;;
73938;SDS011;62291;47.554;8.504;2023-11-21T04:34:26;7.70;;;1.00;;
73938;SDS011;62291;47.554;8.504;2023-11-21T04:36:51;7.90;;;1.55;;
73938;SDS011;62291;47.554;8.504;2023-11-21T04:39:17;7.65;;;1.80;;
73938;SDS011;62291;47.554;8.504;2023-11-21T04:41:43;5.25;;;1.20;;
73938;SDS011;62291;47.554;8.504;2023-11-21T04:44:08;8.32;;;1.23;;
73938;SDS011;62291;47.554;8.504;2023-11-21T04:46:34;6.60;;;1.10;;
73938;SDS011;62291;47.554;8.504;2023-11-21T04:49:00;5.30;;;0.95;;
73938;SDS011;62291;47.554;8.504;2023-11-21T04:51:25;4.10;;;1.00;;
73938;SDS011;62291;47.554;8.504;2023-11-21T04:53:52;7.20;;;1.13;;
73938;SDS011;62291;47.554;8.504;2023-11-21T04:56:17;5.75;;;1.25;;
73938;SDS011;62291;47.554;8.504;2023-11-21T04:58:43;6.30;;;1.55;;
73938;SDS011;62291;47.554;8.504;2023-11-21T05:01:09;6.63;;;1.10;;
73938;SDS011;62291;47.554;8.504;2023-11-21T05:03:35;5.22;;;1.05;;
73938;SDS011;62291;47.554;8.504;2023-11-21T05:06:00;7.25;;;1.40;;
73938;SDS011;62291;47.554;8.504;2023-11-21T05:08:26;5.88;;;1.52;;
73938;SDS011;62291;47.554;8.504;2023-11-21T05:10:52;5.22;;;1.30;;
73938;SDS011;62291;47.554;8.504;2023-11-21T05:13:18;6.85;;;1.10;;
73938;SDS011;62291;47.554;8.504;2023-11-21T05:15:45;5.53;;;1.58;;
73938;SDS011;62291;47.554;8.504;2023-11-21T05:18:11;6.72;;;1.65;;
73938;SDS011;62291;47.554;8.504;2023-11-21T05:20:38;6.43;;;1.23;;
73938;SDS011;62291;47.554;8.504;2023-11-21T05:23:05;5.57;;;1.00;;
73938;SDS011;62291;47.554;8.504;2023-11-21T05:25:32;6.65;;;1.17;;
73938;SDS011;62291;47.554;8.504;2023-11-21T05:27:58;7.90;;;1.10;;
73938;SDS011;62291;47.554;8.504;2023-11-21T05:30:26;4.50;;;1.05;;
73938;SDS011;62291;47.554;8.504;2023-11-21T05:32:52;2.92;;;0.90;;
73938;SDS011;62291;47.554;8.504;2023-11-21T05:35:18;3.65;;;0.90;;
73938;SDS011;62291;47.554;8.504;2023-11-21T05:37:46;5.65;;;1.00;;
73938;SDS011;62291;47.554;8.504;2023-11-21T05:40:12;5.95;;;0.90;;
73938;SDS011;62291;47.554;8.504;2023-11-21T05:42:39;4.95;;;1.15;;
73938;SDS011;62291;47.554;8.504;2023-11-21T05:45:05;4.53;;;1.00;;
73938;SDS011;62291;47.554;8.504;2023-11-21T05:47:38;4.25;;;1.30;;
73938;SDS011;62291;47.554;8.504;2023-11-21T05:50:08;3.85;;;1.60;;
73938;SDS011;62291;47.554;8.504;2023-11-21T05:52:36;4.20;;;1.30;;
73938;SDS011;62291;47.554;8.504;2023-11-21T05:55:03;4.60;;;1.35;;
73938;SDS011;62291;47.554;8.504;2023-11-21T05:57:32;6.97;;;1.58;;
73938;SDS011;62291;47.554;8.504;2023-11-21T06:00:04;4.63;;;1.20;;
73938;SDS011;62291;47.554;8.504;2023-11-21T06:02:46;3.28;;;1.23;;
73938;SDS011;62291;47.554;8.504;2023-11-21T06:05:12;6.35;;;1.63;;
73938;SDS011;62291;47.554;8.504;2023-11-21T06:07:38;7.57;;;1.60;;
73938;SDS011;62291;47.554;8.504;2023-11-21T06:10:07;10.07;;;2.08;;
73938;SDS011;62291;47.554;8.504;2023-11-21T06:12:36;5.53;;;1.20;;
73938;SDS011;62291;47.554;8.504;2023-11-21T06:15:02;5.57;;;1.30;;
73938;SDS011;62291;47.554;8.504;2023-11-21T06:17:30;5.28;;;1.50;;
73938;SDS011;62291;47.554;8.504;2023-11-21T06:19:56;3.38;;;1.40;;
73938;SDS011;62291;47.554;8.504;2023-11-21T06:22:22;4.05;;;1.50;;
73938;SDS011;62291;47.554;8.504;2023-11-21T06:24:48;8.70;;;1.77;;
73938;SDS011;62291;47.554;8.504;2023-11-21T06:27:13;4.22;;;1.20;;
73938;SDS011;62291;47.554;8.504;2023-11-21T06:29:39;6.78;;;1.45;;
73938;SDS011;62291;47.554;8.504;2023-11-21T06:32:07;4.38;;;1.20;;
73938;SDS011;62291;47.554;8.504;2023-11-21T06:34:33;6.80;;;1.38;;
73938;SDS011;62291;47.554;8.504;2023-11-21T06:36:59;4.10;;;1.10;;
73938;SDS011;62291;47.554;8.504;2023-11-21T06:39:24;5.82;;;1.35;;
73938;SDS011;62291;47.554;8.504;2023-11-21T06:41:50;4.18;;;1.25;;
73938;SDS011;62291;47.554;8.504;2023-11-21T06:44:15;5.97;;;1.30;;
73938;SDS011;62291;47.554;8.504;2023-11-21T06:46:41;3.38;;;1.33;;
73938;SDS011;62291;47.554;8.504;2023-11-21T06:49:07;4.38;;;1.20;;
73938;SDS011;62291;47.554;8.504;2023-11-21T06:51:33;7.07;;;1.67;;
73938;SDS011;62291;47.554;8.504;2023-11-21T06:53:59;7.00;;;1.63;;
73938;SDS011;62291;47.554;8.504;2023-11-21T06:56:25;6.35;;;1.70;;
73938;SDS011;62291;47.554;8.504;2023-11-21T06:58:50;7.80;;;1.80;;
73938;SDS011;62291;47.554;8.504;2023-11-21T07:01:19;3.65;;;1.30;;
73938;SDS011;62291;47.554;8.504;2023-11-21T07:03:44;6.90;;;1.60;;
73938;SDS011;62291;47.554;8.504;2023-11-21T07:06:10;4.68;;;1.63;;
73938;SDS011;62291;47.554;8.504;2023-11-21T07:08:36;5.47;;;1.70;;
73938;SDS011;62291;47.554;8.504;2023-11-21T07:11:03;5.55;;;1.90;;
73938;SDS011;62291;47.554;8.504;2023-11-21T07:13:29;8.45;;;3.20;;
73938;SDS011;62291;47.554;8.504;2023-11-21T07:15:55;11.98;;;2.20;;
73938;SDS011;62291;47.554;8.504;2023-11-21T07:18:22;6.95;;;1.83;;
73938;SDS011;62291;47.554;8.504;2023-11-21T07:20:48;6.00;;;1.75;;
73938;SDS011;62291;47.554;8.504;2023-11-21T07:23:13;6.88;;;2.30;;
73938;SDS011;62291;47.554;8.504;2023-11-21T07:25:40;4.82;;;1.88;;
73938;SDS011;62291;47.554;8.504;2023-11-21T07:28:08;6.30;;;2.03;;
73938;SDS011;62291;47.554;8.504;2023-11-21T07:30:34;7.53;;;1.88;;
73938;SDS011;62291;47.554;8.504;2023-11-21T07:33:00;5.93;;;1.90;;
73938;SDS011;62291;47.554;8.504;2023-11-21T07:35:25;6.05;;;2.10;;
73938;SDS011;62291;47.554;8.504;2023-11-21T07:37:51;5.57;;;1.98;;
73938;SDS011;62291;47.554;8.504;2023-11-21T07:40:17;9.40;;;1.95;;
73938;SDS011;62291;47.554;8.504;2023-11-21T07:42:43;5.85;;;1.65;;
73938;SDS011;62291;47.554;8.504;2023-11-21T07:45:08;12.10;;;2.35;;
73938;SDS011;62291;47.554;8.504;2023-11-21T07:47:34;7.40;;;1.90;;
73938;SDS011;62291;47.554;8.504;2023-11-21T07:50:03;4.78;;;2.00;;
73938;SDS011;62291;47.554;8.504;2023-11-21T07:52:29;6.20;;;2.30;;
73938;SDS011;62291;47.554;8.504;2023-11-21T07:54:54;7.65;;;2.22;;
73938;SDS011;62291;47.554;8.504;2023-11-21T07:57:21;6.10;;;2.40;;
73938;SDS011;62291;47.554;8.504;2023-11-21T07:59:47;5.65;;;2.45;;
73938;SDS011;62291;47.554;8.504;2023-11-21T08:02:12;7.03;;;2.30;;
73938;SDS011;62291;47.554;8.504;2023-11-21T08:04:38;8.15;;;2.50;;
73938;SDS011;62291;47.554;8.504;2023-11-21T08:07:04;9.73;;;2.13;;
73938;SDS011;62291;47.554;8.504;2023-11-21T08:09:30;10.80;;;2.60;;
73938;SDS011;62291;47.554;8.504;2023-11-21T08:11:55;5.72;;;2.47;;
73938;SDS011;62291;47.554;8.504;2023-11-21T08:14:21;5.55;;;2.50;;
73938;SDS011;62291;47.554;8.504;2023-11-21T08:16:50;6.20;;;2.92;;
73938;SDS011;62291;47.554;8.504;2023-11-21T08:19:16;8.13;;;3.08;;
73938;SDS011;62291;47.554;8.504;2023-11-21T08:21:43;8.23;;;4.38;;
73938;SDS011;62291;47.554;8.504;2023-11-21T08:24:10;5.53;;;2.55;;
73938;SDS011;62291;47.554;8.504;2023-11-21T08:26:36;5.95;;;2.60;;
73938;SDS011;62291;47.554;8.504;2023-11-21T08:29:02;6.63;;;2.67;;
73938;SDS011;62291;47.554;8.504;2023-11-21T08:31:28;6.50;;;2.65;;
73938;SDS011;62291;47.554;8.504;2023-11-21T08:33:54;5.35;;;2.80;;
73938;SDS011;62291;47.554;8.504;2023-11-21T08:36:23;5.07;;;2.30;;
73938;SDS011;62291;47.554;8.504;2023-11-21T08:38:49;5.70;;;2.22;;
73938;SDS011;62291;47.554;8.504;2023-11-21T08:41:17;6.38;;;2.50;;
73938;SDS011;62291;47.554;8.504;2023-11-21T08:43:47;5.40;;;2.35;;
73938;SDS011;62291;47.554;8.504;2023-11-21T08:46:13;7.25;;;2.42;;
73938;SDS011;62291;47.554;8.504;2023-11-21T08:48:40;6.18;;;2.40;;
73938;SDS011;62291;47.554;8.504;2023-11-21T08:51:06;8.90;;;2.13;;
73938;SDS011;62291;47.554;8.504;2023-11-21T08:53:32;5.38;;;2.35;;
73938;SDS011;62291;47.554;8.504;2023-11-21T08:55:58;5.28;;;2.55;;
73938;SDS011;62291;47.554;8.504;2023-11-21T08:58:23;5.13;;;2.50;;
73938;SDS011;62291;47.554;8.504;2023-11-21T09:00:49;7.20;;;2.60;;
73938;SDS011;62291;47.554;8.504;2023-11-21T09:03:15;6.13;;;2.30;;
73938;SDS011;62291;47.554;8.504;2023-11-21T09:05:40;5.35;;;2.33;;
73938;SDS011;62291;47.554;8.504;2023-11-21T09:08:06;8.45;;;2.45;;
73938;SDS011;62291;47.554;8.504;2023-11-21T09:10:33;7.57;;;2.20;;
73938;SDS011;62291;47.554;8.504;2023-11-21T09:13:01;5.55;;;1.98;;
73938;SDS011;62291;47.554;8.504;2023-11-21T09:15:27;6.75;;;2.22;;
73938;SDS011;62291;47.554;8.504;2023-11-21T09:17:53;3.35;;;1.50;;
73938;SDS011;62291;47.554;8.504;2023-11-21T09:20:19;4.32;;;1.80;;
73938;SDS011;62291;47.554;8.504;2023-11-21T09:22:47;4.78;;;1.77;;
73938;SDS011;62291;47.554;8.504;2023-11-21T09:25:13;4.13;;;1.73;;
73938;SDS011;62291;47.554;8.504;2023-11-21T09:27:40;5.47;;;2.00;;
73938;SDS011;62291;47.554;8.504;2023-11-21T09:30:06;10.73;;;2.00;;
73938;SDS011;62291;47.554;8.504;2023-11-21T09:32:35;5.70;;;1.50;;
73938;SDS011;62291;47.554;8.504;2023-11-21T09:35:03;5.07;;;1.60;;
73938;SDS011;62291;47.554;8.504;2023-11-21T09:37:30;4.53;;;1.60;;
73938;SDS011;62291;47.554;8.504;2023-11-21T09:39:56;4.18;;;2.30;;
73938;SDS011;62291;47.554;8.504;2023-11-21T09:45:01;4.72;;;2.15;;
73938;SDS011;62291;47.554;8.504;2023-11-21T09:47:32;7.25;;;2.20;;
73938;SDS011;62291;47.554;8.504;2023-11-21T09:50:01;5.25;;;2.00;;
73938;SDS011;62291;47.554;8.504;2023-11-21T09:52:27;4.72;;;2.10;;
73938;SDS011;62291;47.554;8.504;2023-11-21T09:54:54;3.92;;;1.98;;
73938;SDS011;62291;47.554;8.504;2023-11-21T09:57:23;4.40;;;2.10;;
73938;SDS011;62291;47.554;8.504;2023-11-21T09:59:53;4.43;;;1.90;;
73938;SDS011;62291;47.554;8.504;2023-11-21T10:02:24;5.07;;;2.63;;
73938;SDS011;62291;47.554;8.504;2023-11-21T10:04:54;3.80;;;1.60;;
73938;SDS011;62291;47.554;8.504;2023-11-21T10:07:21;3.05;;;1.58;;
73938;SDS011;62291;47.554;8.504;2023-11-21T10:09:47;2.72;;;1.20;;
73938;SDS011;62291;47.554;8.504;2023-11-21T10:12:14;1.80;;;1.00;;
73938;SDS011;62291;47.554;8.504;2023-11-21T10:14:41;4.05;;;1.45;;
73938;SDS011;62291;47.554;8.504;2023-11-21T10:17:09;3.83;;;1.20;;
73938;SDS011;62291;47.554;8.504;2023-11-21T10:19:37;2.55;;;1.00;;
73938;SDS011;62291;47.554;8.504;2023-11-21T10:22:04;3.30;;;1.15;;
73938;SDS011;62291;47.554;8.504;2023-11-21T10:24:32;2.45;;;1.10;;
73938;SDS011;62291;47.554;8.504;2023-11-21T10:26:58;3.33;;;1.00;;
73938;SDS011;62291;47.554;8.504;2023-11-21T10:29:24;3.75;;;1.20;;
73938;SDS011;62291;47.554;8.504;2023-11-21T10:31:54;2.45;;;1.10;;
73938;SDS011;62291;47.554;8.504;2023-11-21T10:34:22;3.00;;;0.95;;
73938;SDS011;62291;47.554;8.504;2023-11-21T10:36:48;4.38;;;1.10;;
73938;SDS011;62291;47.554;8.504;2023-11-21T10:39:16;3.15;;;1.00;;
73938;SDS011;62291;47.554;8.504;2023-11-21T10:41:47;3.08;;;1.13;;
73938;SDS011;62291;47.554;8.504;2023-11-21T10:44:16;3.08;;;1.20;;
73938;SDS011;62291;47.554;8.504;2023-11-21T10:46:47;3.05;;;1.08;;
73938;SDS011;62291;47.554;8.504;2023-11-21T10:49:18;3.58;;;1.33;;
73938;SDS011;62291;47.554;8.504;2023-11-21T10:51:45;5.43;;;1.33;;
73938;SDS011;62291;47.554;8.504;2023-11-21T10:54:16;5.22;;;1.73;;
73938;SDS011;62291;47.554;8.504;2023-11-21T10:56:43;3.83;;;1.58;;
73938;SDS011;62291;47.554;8.504;2023-11-21T10:59:10;2.97;;;1.60;;
73938;SDS011;62291;47.554;8.504;2023-11-21T11:01:41;4.15;;;1.50;;
73938;SDS011;62291;47.554;8.504;2023-11-21T11:04:09;4.18;;;1.70;;
73938;SDS011;62291;47.554;8.504;2023-11-21T11:06:44;4.35;;;1.60;;
73938;SDS011;62291;47.554;8.504;2023-11-21T11:09:19;3.10;;;1.33;;
73938;SDS011;62291;47.554;8.504;2023-11-21T11:11:46;3.85;;;1.50;;
73938;SDS011;62291;47.554;8.504;2023-11-21T11:14:12;4.68;;;1.88;;
73938;SDS011;62291;47.554;8.504;2023-11-21T11:16:39;3.92;;;1.63;;
73938;SDS011;62291;47.554;8.504;2023-11-21T11:19:08;4.22;;;1.48;;
73938;SDS011;62291;47.554;8.504;2023-11-21T11:24:50;3.50;;;1.50;;
73938;SDS011;62291;47.554;8.504;2023-11-21T11:33:14;2.53;;;1.60;;
73938;SDS011;62291;47.554;8.504;2023-11-21T11:35:52;3.17;;;1.70;;
73938;SDS011;62291;47.554;8.504;2023-11-21T11:38:56;1.40;;;1.10;;
73938;SDS011;62291;47.554;8.504;2023-11-21T11:41:25;1.65;;;1.20;;
73938;SDS011;62291;47.554;8.504;2023-11-21T11:43:53;3.58;;;1.60;;
73938;SDS011;62291;47.554;8.504;2023-11-21T11:46:19;2.38;;;1.70;;
73938;SDS011;62291;47.554;8.504;2023-11-21T11:48:48;2.35;;;1.90;;
73938;SDS011;62291;47.554;8.504;2023-11-21T11:51:28;3.05;;;2.22;;
73938;SDS011;62291;47.554;8.504;2023-11-21T11:53:53;4.78;;;2.80;;
73938;SDS011;62291;47.554;8.504;2023-11-21T11:56:24;2.90;;;2.22;;
73938;SDS011;62291;47.554;8.504;2023-11-21T11:58:52;4.15;;;2.78;;
73938;SDS011;62291;47.554;8.504;2023-11-21T12:01:19;4.50;;;2.80;;
73938;SDS011;62291;47.554;8.504;2023-11-21T12:06:42;7.28;;;3.00;;
73938;SDS011;62291;47.554;8.504;2023-11-21T12:09:21;5.03;;;2.60;;
73938;SDS011;62291;47.554;8.504;2023-11-21T12:11:48;5.10;;;3.08;;
73938;SDS011;62291;47.554;8.504;2023-11-21T12:14:15;4.05;;;2.28;;
73938;SDS011;62291;47.554;8.504;2023-11-21T12:16:42;2.63;;;2.30;;
73938;SDS011;62291;47.554;8.504;2023-11-21T12:19:13;3.03;;;2.33;;
73938;SDS011;62291;47.554;8.504;2023-11-21T12:21:39;4.50;;;2.65;;
73938;SDS011;62291;47.554;8.504;2023-11-21T12:24:09;5.93;;;2.63;;
73938;SDS011;62291;47.554;8.504;2023-11-21T12:26:35;4.00;;;2.30;;
73938;SDS011;62291;47.554;8.504;2023-11-21T12:29:03;4.50;;;2.33;;
73938;SDS011;62291;47.554;8.504;2023-11-21T12:31:32;5.22;;;2.65;;
73938;SDS011;62291;47.554;8.504;2023-11-21T12:33:59;4.32;;;2.17;;
73938;SDS011;62291;47.554;8.504;2023-11-21T12:36:25;4.47;;;2.75;;
73938;SDS011;62291;47.554;8.504;2023-11-21T12:38:51;1.75;;;1.23;;
73938;SDS011;62291;47.554;8.504;2023-11-21T12:41:17;2.53;;;1.30;;
73938;SDS011;62291;47.554;8.504;2023-11-21T12:43:43;1.50;;;1.25;;
73938;SDS011;62291;47.554;8.504;2023-11-21T12:46:10;2.00;;;1.00;;
73938;SDS011;62291;47.554;8.504;2023-11-21T12:48:39;1.88;;;1.00;;
73938;SDS011;62291;47.554;8.504;2023-11-21T12:51:09;2.67;;;1.02;;
73938;SDS011;62291;47.554;8.504;2023-11-21T12:53:43;2.45;;;1.00;;
73938;SDS011;62291;47.554;8.504;2023-11-21T12:56:10;4.03;;;0.95;;
73938;SDS011;62291;47.554;8.504;2023-11-21T12:58:37;2.45;;;0.80;;
73938;SDS011;62291;47.554;8.504;2023-11-21T13:01:04;2.50;;;1.00;;
73938;SDS011;62291;47.554;8.504;2023-11-21T13:03:37;2.28;;;1.00;;
73938;SDS011;62291;47.554;8.504;2023-11-21T13:06:03;6.10;;;0.95;;
73938;SDS011;62291;47.554;8.504;2023-11-21T13:08:30;2.03;;;1.00;;
73938;SDS011;62291;47.554;8.504;2023-11-21T13:10:57;1.90;;;1.10;;
73938;SDS011;62291;47.554;8.504;2023-11-21T13:13:24;1.17;;;0.70;;
73938;SDS011;62291;47.554;8.504;2023-11-21T13:15:53;3.33;;;0.70;;
73938;SDS011;62291;47.554;8.504;2023-11-21T13:18:26;1.08;;;0.80;;
73938;SDS011;62291;47.554;8.504;2023-11-21T13:20:53;3.83;;;0.90;;
73938;SDS011;62291;47.554;8.504;2023-11-21T13:23:20;3.85;;;1.10;;
73938;SDS011;62291;47.554;8.504;2023-11-21T13:25:46;1.13;;;0.80;;
73938;SDS011;62291;47.554;8.504;2023-11-21T13:28:13;4.45;;;0.90;;
73938;SDS011;62291;47.554;8.504;2023-11-21T13:30:40;6.90;;;1.45;;
73938;SDS011;62291;47.554;8.504;2023-11-21T13:33:07;1.92;;;1.00;;
73938;SDS011;62291;47.554;8.504;2023-11-21T13:35:37;2.67;;;1.30;;
73938;SDS011;62291;47.554;8.504;2023-11-21T13:40:37;2.72;;;1.10;;
73938;SDS011;62291;47.554;8.504;2023-11-21T13:43:11;3.28;;;1.13;;
73938;SDS011;62291;47.554;8.504;2023-11-21T13:45:42;2.75;;;1.40;;
73938;SDS011;62291;47.554;8.504;2023-11-21T13:48:09;2.75;;;1.10;;
73938;SDS011;62291;47.554;8.504;2023-11-21T13:50:45;2.45;;;0.90;;
73938;SDS011;62291;47.554;8.504;2023-11-21T13:53:20;2.60;;;1.10;;
73938;SDS011;62291;47.554;8.504;2023-11-21T13:55:49;2.63;;;1.10;;
73938;SDS011;62291;47.554;8.504;2023-11-21T13:58:16;1.55;;;0.90;;
73938;SDS011;62291;47.554;8.504;2023-11-21T14:00:49;1.95;;;0.80;;
73938;SDS011;62291;47.554;8.504;2023-11-21T14:03:24;2.67;;;0.93;;
73938;SDS011;62291;47.554;8.504;2023-11-21T14:06:02;2.80;;;0.73;;
73938;SDS011;62291;47.554;8.504;2023-11-21T14:08:34;6.00;;;0.80;;
73938;SDS011;62291;47.554;8.504;2023-11-21T14:10:59;2.83;;;0.55;;
73938;SDS011;62291;47.554;8.504;2023-11-21T14:13:25;1.73;;;0.60;;
73938;SDS011;62291;47.554;8.504;2023-11-21T14:15:52;1.33;;;0.60;;
73938;SDS011;62291;47.554;8.504;2023-11-21T14:18:26;2.63;;;0.60;;
73938;SDS011;62291;47.554;8.504;2023-11-21T14:20:56;1.58;;;0.63;;
73938;SDS011;62291;47.554;8.504;2023-11-21T14:23:22;1.42;;;0.80;;
73938;SDS011;62291;47.554;8.504;2023-11-21T14:25:48;3.33;;;0.70;;
73938;SDS011;62291;47.554;8.504;2023-11-21T14:28:15;3.38;;;0.80;;
73938;SDS011;62291;47.554;8.504;2023-11-21T14:30:41;1.13;;;0.60;;
73938;SDS011;62291;47.554;8.504;2023-11-21T14:33:07;2.50;;;0.80;;
73938;SDS011;62291;47.554;8.504;2023-11-21T14:35:35;1.48;;;0.60;;
73938;SDS011;62291;47.554;8.504;2023-11-21T14:38:01;1.50;;;0.80;;
73938;SDS011;62291;47.554;8.504;2023-11-21T14:40:30;2.15;;;0.80;;
73938;SDS011;62291;47.554;8.504;2023-11-21T14:42:59;1.95;;;0.80;;
73938;SDS011;62291;47.554;8.504;2023-11-21T14:45:25;1.10;;;0.50;;
73938;SDS011;62291;47.554;8.504;2023-11-21T14:47:52;1.80;;;0.70;;
73938;SDS011;62291;47.554;8.504;2023-11-21T14:50:30;2.42;;;0.60;;
73938;SDS011;62291;47.554;8.504;2023-11-21T14:53:11;2.75;;;0.70;;
73938;SDS011;62291;47.554;8.504;2023-11-21T14:55:40;2.45;;;0.65;;
73938;SDS011;62291;47.554;8.504;2023-11-21T14:58:15;1.48;;;0.70;;
73938;SDS011;62291;47.554;8.504;2023-11-21T15:00:58;1.85;;;0.70;;
73938;SDS011;62291;47.554;8.504;2023-11-21T15:03:27;2.42;;;0.70;;
73938;SDS011;62291;47.554;8.504;2023-11-21T15:05:59;2.78;;;0.85;;